Time;durP1;ratioP1;P1;durP2;ratioP2;P2;SDS_P1;SDS_P2;PMS_P1;PMS_P2;Temp;Humidity;BMP_temperature;BMP_pressure;BME280_temperature;BME280_humidity;BME280_pressure;Samples;Min_cycle;Max_cycle;Signal;HPM_P1;HPM_P2
2023/04/27 00:01:48;;;;;;;8.00;4.88;;;9.50;97.20;;;;;;4881087;29;20052;-79
2023/04/27 00:04:16;;;;;;;10.85;5.22;;;9.40;97.70;;;;;;4889863;29;20096;-74
2023/04/27 00:06:44;;;;;;;7.28;5.13;;;9.30;97.70;;;;;;4893088;29;20104;-74
2023/04/27 00:09:14;;;;;;;9.35;4.82;;;9.30;98.00;;;;;;4886589;29;20064;-78
2023/04/27 00:11:42;;;;;;;11.77;4.38;;;9.40;96.80;;;;;;4899617;29;20057;-75
2023/04/27 00:14:09;;;;;;;7.07;5.20;;;9.50;96.40;;;;;;4876694;29;20420;-82
2023/04/27 00:16:39;;;;;;;7.68;4.40;;;9.60;95.20;;;;;;4857963;29;20090;-77
2023/04/27 00:19:09;;;;;;;10.77;4.78;;;9.70;94.80;;;;;;4864186;29;20078;-79
2023/04/27 00:21:40;;;;;;;6.47;4.50;;;9.80;94.10;;;;;;4855296;29;20065;-73
2023/04/27 00:24:11;;;;;;;6.50;4.10;;;9.80;94.20;;;;;;4885304;29;20067;-72
2023/04/27 00:26:45;;;;;;;5.80;4.40;;;9.80;93.60;;;;;;4867239;29;20123;-78
2023/04/27 00:29:29;;;;;;;9.35;4.72;;;9.60;94.20;;;;;;4866845;29;20056;-75
2023/04/27 00:31:58;;;;;;;10.50;4.25;;;9.70;93.10;;;;;;4888794;29;20057;-78
2023/04/27 00:34:27;;;;;;;11.35;4.45;;;9.90;92.20;;;;;;4880454;29;20090;-72
2023/04/27 00:36:56;;;;;;;8.27;4.45;;;9.80;92.90;;;;;;4864578;29;20049;-73
2023/04/27 00:39:27;;;;;;;9.98;4.70;;;9.70;92.20;;;;;;4860554;29;20073;-72
2023/04/27 00:41:54;;;;;;;7.90;4.35;;;9.50;93.20;;;;;;4866571;29;20053;-78
2023/04/27 00:44:26;;;;;;;6.28;4.60;;;9.70;93.10;;;;;;4858182;29;20125;-75
2023/04/27 00:46:55;;;;;;;8.10;4.30;;;9.70;93.60;;;;;;4870632;29;20053;-74
2023/04/27 00:49:29;;;;;;;8.13;4.38;;;9.50;93.50;;;;;;4881100;29;20045;-77
2023/04/27 00:52:13;;;;;;;6.82;4.18;;;9.60;93.30;;;;;;4865210;24;20064;-73
2023/04/27 00:54:41;;;;;;;7.43;4.40;;;9.70;92.80;;;;;;4877353;29;20060;-74
2023/04/27 00:57:08;;;;;;;9.82;4.80;;;9.70;92.70;;;;;;4863748;29;20049;-80
2023/04/27 00:59:38;;;;;;;5.72;4.30;;;9.80;92.40;;;;;;4877359;29;20049;-79
2023/04/27 01:02:05;;;;;;;6.70;4.20;;;9.80;92.60;;;;;;4877411;29;20113;-74
2023/04/27 01:04:32;;;;;;;6.50;4.50;;;9.60;92.40;;;;;;4864182;29;20053;-76
2023/04/27 01:07:01;;;;;;;6.55;4.32;;;9.50;92.70;;;;;;4857452;29;20048;-73
2023/04/27 01:09:29;;;;;;;6.05;4.45;;;9.60;93.00;;;;;;4879801;29;20120;-72
2023/04/27 01:11:57;;;;;;;6.22;4.50;;;9.60;93.00;;;;;;4883298;29;20056;-81
2023/04/27 01:14:25;;;;;;;7.43;4.45;;;9.60;92.60;;;;;;4872076;29;20049;-74
2023/04/27 01:16:52;;;;;;;10.55;5.10;;;9.50;93.60;;;;;;4846407;29;20225;-75
2023/04/27 01:19:20;;;;;;;7.25;5.38;;;9.10;96.50;;;;;;4865422;29;20105;-76
2023/04/27 01:21:47;;;;;;;8.82;6.25;;;8.80;99.40;;;;;;4851230;29;20061;-76
2023/04/27 01:24:22;;;;;;;12.35;6.00;;;8.40;99.90;;;;;;4870248;29;20056;-74
2023/04/27 01:26:52;;;;;;;13.30;6.05;;;8.30;99.90;;;;;;4864111;29;20056;-72
2023/04/27 01:29:20;;;;;;;8.48;6.20;;;8.30;99.90;;;;;;4848683;29;20063;-80
2023/04/27 01:31:47;;;;;;;9.18;5.82;;;8.30;99.90;;;;;;4847653;29;20053;-75
2023/04/27 01:34:15;;;;;;;10.57;6.00;;;8.30;99.90;;;;;;4864164;29;20414;-76
2023/04/27 01:36:42;;;;;;;7.57;5.45;;;8.50;99.90;;;;;;4853994;29;20480;-72
2023/04/27 01:39:10;;;;;;;9.25;6.82;;;8.40;99.90;;;;;;4878854;29;20080;-76
2023/04/27 01:41:37;;;;;;;7.18;5.82;;;8.40;99.90;;;;;;4860745;29;20057;-75
2023/04/27 01:44:05;;;;;;;8.95;5.70;;;8.50;99.90;;;;;;4875213;29;20053;-78
2023/04/27 01:46:32;;;;;;;7.38;5.40;;;8.50;99.90;;;;;;4875785;29;20490;-75
2023/04/27 01:49:02;;;;;;;6.38;4.95;;;8.50;99.90;;;;;;4861306;29;20056;-73
2023/04/27 01:51:29;;;;;;;7.72;5.10;;;8.60;99.90;;;;;;4849286;29;20548;-74
2023/04/27 01:53:57;;;;;;;10.98;6.50;;;8.70;99.30;;;;;;4855738;29;20077;-80
2023/04/27 01:56:24;;;;;;;6.53;5.13;;;8.60;99.90;;;;;;4850965;29;20128;-72
2023/04/27 01:58:52;;;;;;;7.90;4.93;;;8.70;98.90;;;;;;4839209;29;20532;-75
2023/04/27 02:01:19;;;;;;;11.10;5.93;;;8.80;99.90;;;;;;4875540;29;20049;-73
2023/04/27 02:03:51;;;;;;;8.32;4.80;;;8.50;99.90;;;;;;4849676;29;20064;-80
2023/04/27 02:06:22;;;;;;;6.05;4.57;;;8.80;98.40;;;;;;4831803;29;20060;-73
2023/04/27 02:08:50;;;;;;;6.50;4.43;;;8.90;98.00;;;;;;4863221;29;20489;-78
2023/04/27 02:11:20;;;;;;;10.45;4.55;;;9.20;96.10;;;;;;4851664;29;20061;-78
2023/04/27 02:13:50;;;;;;;7.10;4.25;;;9.50;94.10;;;;;;4870063;29;20050;-71
2023/04/27 02:16:17;;;;;;;10.95;4.78;;;9.40;93.10;;;;;;4858985;29;20053;-72
2023/04/27 02:18:45;;;;;;;12.95;4.70;;;9.50;92.20;;;;;;4858625;29;20057;-79
2023/04/27 02:21:12;;;;;;;5.25;3.85;;;9.40;92.30;;;;;;4872396;29;20056;-75
2023/04/27 02:23:39;;;;;;;9.07;4.18;;;9.40;92.10;;;;;;4868003;29;20057;-72
2023/04/27 02:26:06;;;;;;;9.43;4.43;;;9.30;92.60;;;;;;4857209;29;20053;-74
2023/04/27 02:28:34;;;;;;;9.52;4.10;;;9.40;92.40;;;;;;4871795;29;20058;-71
2023/04/27 02:31:01;;;;;;;8.38;4.60;;;9.60;90.00;;;;;;4863907;29;20053;-75
2023/04/27 02:33:29;;;;;;;7.07;4.45;;;9.80;87.00;;;;;;4867503;29;20062;-71
2023/04/27 02:36:00;;;;;;;6.05;4.05;;;9.70;90.10;;;;;;4875458;29;20040;-74
2023/04/27 02:38:29;;;;;;;8.75;4.28;;;9.50;91.30;;;;;;4851955;29;20054;-80
2023/04/27 02:40:57;;;;;;;8.98;4.65;;;9.40;91.30;;;;;;4840200;29;20049;-76
2023/04/27 02:43:24;;;;;;;7.40;4.30;;;9.30;91.70;;;;;;4854952;29;20063;-73
2023/04/27 02:45:52;;;;;;;14.40;4.50;;;9.30;92.30;;;;;;4839786;29;20124;-80
2023/04/27 02:48:55;;;;;;;7.82;4.43;;;9.30;91.80;;;;;;4858637;29;20057;-74
2023/04/27 02:51:22;;;;;;;10.77;4.65;;;9.40;91.50;;;;;;4871100;29;20528;-71
2023/04/27 02:53:52;;;;;;;6.60;4.30;;;9.30;91.60;;;;;;4872620;29;20084;-74
2023/04/27 02:56:19;;;;;;;5.85;3.90;;;9.20;91.90;;;;;;4870787;29;20465;-74
2023/04/27 02:58:50;;;;;;;5.97;4.38;;;9.40;90.70;;;;;;4849976;29;20388;-80
2023/04/27 03:01:17;;;;;;;8.13;4.07;;;9.40;91.00;;;;;;4850814;29;20058;-71
2023/04/27 03:03:46;;;;;;;6.15;4.20;;;9.30;91.10;;;;;;4859870;29;20061;-76
2023/04/27 03:06:14;;;;;;;6.15;4.10;;;9.30;91.70;;;;;;4823519;29;20053;-76
2023/04/27 03:08:41;;;;;;;6.60;4.55;;;9.30;92.00;;;;;;4859100;29;20072;-73
2023/04/27 03:11:11;;;;;;;5.68;4.22;;;9.20;92.50;;;;;;4855068;29;20068;-73
2023/04/27 03:13:42;;;;;;;8.18;4.80;;;8.90;92.90;;;;;;4847202;29;20062;-71
2023/04/27 03:16:12;;;;;;;12.88;5.05;;;9.00;93.30;;;;;;4860075;29;20053;-74
2023/04/27 03:18:40;;;;;;;9.48;4.07;;;9.00;93.20;;;;;;4832245;29;20124;-80
2023/04/27 03:21:09;;;;;;;5.30;4.22;;;9.00;92.30;;;;;;4840786;29;20046;-77
2023/04/27 03:23:37;;;;;;;8.80;4.50;;;9.10;92.50;;;;;;4861030;29;20077;-72
2023/04/27 03:26:19;;;;;;;10.05;4.38;;;9.20;92.10;;;;;;4841124;29;20083;-77
2023/04/27 03:28:47;;;;;;;6.30;4.25;;;9.20;92.50;;;;;;4844746;24;20046;-74
2023/04/27 03:31:15;;;;;;;6.32;4.32;;;9.20;91.40;;;;;;4859824;29;20462;-73
2023/04/27 03:33:43;;;;;;;5.28;4.00;;;9.20;91.10;;;;;;4837171;29;20559;-70
2023/04/27 03:36:11;;;;;;;8.68;4.35;;;9.20;91.10;;;;;;4838027;29;20061;-73
2023/04/27 03:38:41;;;;;;;5.72;4.20;;;9.30;90.50;;;;;;4855580;29;20058;-71
2023/04/27 03:41:09;;;;;;;14.98;4.65;;;9.30;90.10;;;;;;4851427;29;20464;-77
2023/04/27 03:43:41;;;;;;;7.05;4.43;;;9.50;88.90;;;;;;4849174;29;20076;-79
2023/04/27 03:46:08;;;;;;;8.95;4.68;;;9.50;89.50;;;;;;4833574;29;20061;-72
2023/04/27 03:48:36;;;;;;;6.55;4.38;;;9.60;89.70;;;;;;4811657;29;20078;-77
2023/04/27 03:51:03;;;;;;;10.15;4.90;;;9.50;89.50;;;;;;4831899;29;20054;-71
2023/04/27 03:53:31;;;;;;;10.40;4.40;;;9.50;90.20;;;;;;4826074;29;20061;-74
2023/04/27 03:56:01;;;;;;;7.85;4.22;;;9.40;90.50;;;;;;4826954;29;20084;-75
2023/04/27 03:58:28;;;;;;;8.18;4.70;;;9.40;90.40;;;;;;4819115;29;20054;-74
2023/04/27 04:00:56;;;;;;;7.15;4.40;;;9.40;90.80;;;;;;4835778;29;20054;-75
2023/04/27 04:03:23;;;;;;;11.05;4.88;;;9.40;91.10;;;;;;4821844;29;20398;-74
2023/04/27 04:05:52;;;;;;;9.40;4.65;;;9.40;90.90;;;;;;4831332;29;20111;-73
2023/04/27 04:08:19;;;;;;;10.07;4.50;;;9.40;89.90;;;;;;4822674;29;20055;-73
2023/04/27 04:10:46;;;;;;;10.07;4.72;;;9.30;90.20;;;;;;4824191;29;20081;-74
2023/04/27 04:13:13;;;;;;;5.90;4.10;;;9.40;90.40;;;;;;4824647;29;20062;-78
2023/04/27 04:15:40;;;;;;;5.88;4.70;;;9.40;90.50;;;;;;4815798;29;20055;-78
2023/04/27 04:18:08;;;;;;;8.95;4.60;;;9.50;90.40;;;;;;4820810;29;20055;-77
2023/04/27 04:20:35;;;;;;;6.90;4.28;;;9.40;90.00;;;;;;4839028;29;20050;-73
2023/04/27 04:23:03;;;;;;;9.15;4.60;;;9.40;90.30;;;;;;4807477;29;20053;-72
2023/04/27 04:25:31;;;;;;;7.97;4.30;;;9.40;90.20;;;;;;4816115;29;20111;-72
2023/04/27 04:27:58;;;;;;;12.02;4.57;;;9.30;89.30;;;;;;4821048;29;20115;-72
2023/04/27 04:30:26;;;;;;;9.18;4.32;;;9.30;90.30;;;;;;4838212;29;20124;-74
2023/04/27 04:32:54;;;;;;;9.25;4.93;;;9.30;90.70;;;;;;4814604;29;20058;-71
2023/04/27 04:35:21;;;;;;;8.10;4.72;;;9.10;91.20;;;;;;4828158;29;20058;-76
2023/04/27 04:37:48;;;;;;;9.93;5.30;;;9.20;91.60;;;;;;4831634;29;20459;-73
2023/04/27 04:40:16;;;;;;;8.48;5.05;;;9.20;92.70;;;;;;4828698;29;20057;-75
2023/04/27 04:42:44;;;;;;;7.65;4.75;;;9.20;92.60;;;;;;4830226;29;20051;-78
2023/04/27 04:45:12;;;;;;;8.93;5.32;;;9.10;91.80;;;;;;4821119;29;20115;-76
2023/04/27 04:47:40;;;;;;;10.35;5.10;;;9.30;92.00;;;;;;4847752;29;20062;-72
2023/04/27 04:50:09;;;;;;;11.52;5.28;;;9.30;92.00;;;;;;4821223;29;20051;-71
2023/04/27 04:52:37;;;;;;;13.80;5.10;;;9.30;90.90;;;;;;4816448;29;20058;-72
2023/04/27 04:55:05;;;;;;;11.35;4.93;;;9.30;90.40;;;;;;4823051;29;20070;-72
2023/04/27 04:57:32;;;;;;;12.90;4.82;;;9.40;90.10;;;;;;4830751;29;20438;-71
2023/04/27 05:00:01;;;;;;;9.63;4.90;;;9.50;87.60;;;;;;4828116;29;20050;-73
2023/04/27 05:02:30;;;;;;;11.85;4.95;;;9.60;86.90;;;;;;4832170;29;20503;-75
2023/04/27 05:05:00;;;;;;;8.40;4.63;;;9.70;87.80;;;;;;4831006;29;20054;-76
2023/04/27 05:07:30;;;;;;;15.73;5.35;;;9.70;87.10;;;;;;4839579;29;20089;-76
2023/04/27 05:10:07;;;;;;;9.20;4.43;;;9.80;88.30;;;;;;4813192;29;20054;-76
2023/04/27 05:12:50;;;;;;;16.50;7.13;;;9.90;86.50;;;;;;4836633;29;20150;-77
2023/04/27 05:15:31;;;;;;;13.23;5.10;;;10.10;85.50;;;;;;4822847;29;20063;-79
2023/04/27 05:18:02;;;;;;;9.43;4.90;;;9.90;85.70;;;;;;4861610;29;20058;-70
2023/04/27 05:21:19;;;;;;;39.70;21.38;;;9.80;86.10;;;;;;4845762;29;20064;-72
2023/04/27 05:24:54;;;;;;;23.52;12.18;;;10.00;85.40;;;;;;4823952;29;20424;-73
2023/04/27 05:27:49;;;;;;;36.15;19.92;;;10.00;84.20;;;;;;4837825;29;20062;-72
2023/04/27 05:30:20;;;;;;;9.07;5.30;;;10.10;84.50;;;;;;4844414;29;20057;-77
2023/04/27 05:33:07;;;;;;;7.30;4.55;;;9.90;84.00;;;;;;4819208;29;20054;-76
2023/04/27 05:36:05;;;;;;;10.15;4.68;;;9.90;85.30;;;;;;4826447;29;20073;-75
2023/04/27 05:38:38;;;;;;;8.45;4.55;;;10.00;84.20;;;;;;4846849;29;20077;-73
2023/04/27 05:41:12;;;;;;;10.13;5.47;;;10.00;84.40;;;;;;4813704;29;20344;-80
2023/04/27 05:43:53;;;;;;;9.68;5.00;;;10.10;84.80;;;;;;4834939;29;20054;-75
2023/04/27 05:46:23;;;;;;;9.15;5.22;;;10.10;84.80;;;;;;4914296;23;20104;-73
2023/04/27 05:48:51;;;;;;;9.70;5.38;;;10.20;84.10;;;;;;4843877;29;20401;-76
2023/04/27 05:51:24;;;;;;;13.18;5.15;;;10.10;83.90;;;;;;4848959;29;20058;-75
2023/04/27 05:53:54;;;;;;;10.88;4.65;;;10.30;84.70;;;;;;4877410;29;20518;-76
2023/04/27 05:56:21;;;;;;;7.72;4.50;;;10.40;83.50;;;;;;4882746;29;20061;-77
2023/04/27 05:58:53;;;;;;;76.10;41.17;;;10.50;83.00;;;;;;4866087;29;20037;-80
2023/04/27 06:01:39;;;;;;;31.45;16.88;;;10.70;83.60;;;;;;4861454;29;20054;-76
2023/04/27 06:08:15;;;;;;;9.55;4.45;;;10.80;80.10;;;;;;4885505;23;20047;-79
2023/04/27 06:11:09;;;;;;;9.90;4.25;;;10.90;80.40;;;;;;4879230;29;20045;-78
2023/04/27 06:13:41;;;;;;;9.07;4.50;;;10.90;77.70;;;;;;4876946;29;20086;-79
2023/04/27 06:16:23;;;;;;;8.98;3.97;;;10.90;76.90;;;;;;4865280;29;20053;-76
2023/04/27 06:21:41;;;;;;;8.25;4.22;;;10.90;76.70;;;;;;1308782;27;20076;-77
2023/04/27 06:24:09;;;;;;;9.63;4.07;;;10.90;74.90;;;;;;4895405;29;20072;-76
2023/04/27 06:26:59;;;;;;;7.80;4.20;;;11.00;75.30;;;;;;4881543;29;20053;-76
2023/04/27 06:29:43;;;;;;;8.25;4.13;;;11.00;74.90;;;;;;4853453;29;20046;-77
2023/04/27 06:32:12;;;;;;;7.70;4.15;;;11.00;75.20;;;;;;4873303;29;20049;-78
2023/04/27 06:34:43;;;;;;;7.85;4.30;;;11.10;74.80;;;;;;4875373;29;20056;-79
2023/04/27 06:37:51;;;;;;;8.05;4.28;;;11.10;73.40;;;;;;4856023;29;20058;-76
2023/04/27 06:40:49;;;;;;;7.72;4.00;;;11.10;73.10;;;;;;4867907;29;20049;-78
2023/04/27 06:43:35;;;;;;;9.32;3.70;;;11.10;73.80;;;;;;4831831;29;20073;-77
2023/04/27 06:48:57;;;;;;;7.22;3.53;;;11.20;73.60;;;;;;4920141;23;20145;-77
2023/04/27 06:51:42;;;;;;;7.28;3.53;;;11.20;73.60;;;;;;4864132;29;20054;-76
2023/04/27 06:54:12;;;;;;;6.18;3.72;;;11.30;74.60;;;;;;4839765;29;20049;-79
2023/04/27 06:56:43;;;;;;;8.10;3.42;;;11.40;74.00;;;;;;4858761;29;20055;-76
2023/04/27 06:59:20;;;;;;;5.90;3.78;;;11.40;74.00;;;;;;4891631;29;20071;-80
2023/04/27 07:01:47;;;;;;;9.98;3.83;;;11.40;72.90;;;;;;4870886;29;20058;-80
2023/04/27 07:04:42;;;;;;;8.07;3.85;;;11.40;72.60;;;;;;4849789;29;20064;-78
2023/04/27 07:07:26;;;;;;;5.40;3.83;;;11.40;71.30;;;;;;4862062;29;20053;-78
2023/04/27 07:13:38;;;;;;;7.50;3.63;;;11.40;71.70;;;;;;4872698;29;20086;-76
2023/04/27 07:16:26;;;;;;;8.55;3.92;;;11.40;72.00;;;;;;4894129;29;20076;-78
2023/04/27 07:19:13;;;;;;;5.07;3.67;;;11.40;71.50;;;;;;4883652;29;20063;-80
2023/04/27 07:22:04;;;;;;;7.50;3.60;;;11.60;72.60;;;;;;4861583;29;20128;-81
2023/04/27 07:24:45;;;;;;;7.60;4.05;;;11.60;70.90;;;;;;4848792;29;20105;-80
2023/04/27 07:27:16;;;;;;;6.13;3.70;;;11.50;70.50;;;;;;4887634;29;20117;-79
2023/04/27 07:30:08;;;;;;;9.75;4.13;;;11.60;70.90;;;;;;4858423;29;20057;-80
2023/04/27 07:32:41;;;;;;;7.57;3.97;;;11.70;72.60;;;;;;4879253;29;20113;-80
2023/04/27 07:35:49;;;;;;;13.88;4.65;;;11.80;70.90;;;;;;4877144;29;20056;-81
2023/04/27 07:39:05;;;;;;;6.45;3.85;;;11.80;70.70;;;;;;4871296;29;20493;-80
2023/04/27 07:41:47;;;;;;;5.22;3.38;;;11.70;69.80;;;;;;4882291;29;20057;-81
2023/04/27 07:45:02;;;;;;;5.57;3.50;;;11.70;70.50;;;;;;4880819;29;20402;-82
2023/04/27 07:48:17;;;;;;;4.45;3.13;;;11.70;69.70;;;;;;4881277;23;20076;31
2023/04/27 07:51:17;;;;;;;4.72;3.30;;;11.80;69.00;;;;;;4860098;29;20030;-77
2023/04/27 07:53:54;;;;;;;4.68;3.50;;;11.60;68.50;;;;;;4849182;29;20114;-80
2023/04/27 07:56:45;;;;;;;6.18;3.50;;;11.80;70.20;;;;;;4856438;29;20083;-78
2023/04/27 07:59:37;;;;;;;5.80;3.67;;;11.90;70.50;;;;;;4838555;29;20054;-78
2023/04/27 08:03:23;;;;;;;8.48;3.55;;;12.00;70.40;;;;;;4812735;29;20066;-80
2023/04/27 08:06:38;;;;;;;5.57;3.35;;;12.10;70.30;;;;;;4797272;29;20060;-77
2023/04/27 08:09:49;;;;;;;8.55;3.60;;;12.20;69.80;;;;;;4803555;29;20067;-80
2023/04/27 08:12:29;;;;;;;5.63;3.42;;;12.00;67.30;;;;;;4815637;29;20051;-80
2023/04/27 08:15:36;;;;;;;6.40;3.47;;;11.90;68.30;;;;;;4814129;29;20043;-79
2023/04/27 08:18:08;;;;;;;5.28;3.45;;;12.10;70.50;;;;;;4776917;30;20113;-78
2023/04/27 08:20:50;;;;;;;6.22;3.30;;;12.00;68.80;;;;;;4799856;29;20123;-76
2023/04/27 08:23:19;;;;;;;6.30;3.72;;;12.10;69.60;;;;;;4801094;30;20063;-80
2023/04/27 08:26:06;;;;;;;5.07;3.15;;;12.20;68.90;;;;;;4781319;29;20460;-80
2023/04/27 08:28:52;;;;;;;7.10;3.22;;;12.20;67.80;;;;;;4791770;29;20100;-76
2023/04/27 08:31:24;;;;;;;6.57;3.17;;;12.20;66.90;;;;;;4804804;29;20093;-75
2023/04/27 08:33:52;;;;;;;6.13;3.53;;;12.30;66.70;;;;;;4796127;29;20113;-76
2023/04/27 08:36:28;;;;;;;5.20;3.67;;;12.20;66.00;;;;;;4797254;29;20063;-78
2023/04/27 08:41:42;;;;;;;9.27;3.45;;;12.00;65.50;;;;;;1388355;27;20049;-79
2023/04/27 08:44:16;;;;;;;5.18;3.28;;;12.20;65.20;;;;;;4880729;29;20061;-80
2023/04/27 08:46:51;;;;;;;6.07;3.50;;;12.30;66.20;;;;;;4881797;29;20049;-78
2023/04/27 08:49:34;;;;;;;8.57;3.60;;;12.60;66.50;;;;;;4869540;29;20116;-76
2023/04/27 08:52:12;;;;;;;8.32;3.35;;;12.70;65.30;;;;;;4897505;29;20063;-79
2023/04/27 08:59:14;;;;;;;5.95;3.10;;;12.70;63.90;;;;;;4893528;29;20078;-81
2023/04/27 09:02:03;;;;;;;7.28;3.47;;;12.90;64.80;;;;;;4881817;29;20045;-76
2023/04/27 09:05:05;;;;;;;8.55;3.60;;;13.10;64.80;;;;;;4881753;29;20082;-81
2023/04/27 09:08:07;;;;;;;7.85;3.53;;;13.30;63.80;;;;;;4866890;29;20055;-76
2023/04/27 09:10:49;;;;;;;7.43;2.95;;;13.50;64.30;;;;;;4879519;29;20125;-77
2023/04/27 09:13:18;;;;;;;7.10;3.17;;;13.30;63.20;;;;;;4888155;29;20132;-78
2023/04/27 09:16:20;;;;;;;6.00;3.03;;;13.50;63.20;;;;;;4894734;29;20113;-82
2023/04/27 09:19:08;;;;;;;3.70;2.72;;;13.20;61.90;;;;;;4888338;29;20097;-75
2023/04/27 09:21:52;;;;;;;7.25;2.97;;;13.40;62.60;;;;;;4892977;29;20049;-79
2023/04/27 09:25:23;;;;;;;6.50;3.55;;;13.60;63.60;;;;;;4872900;29;20096;-79
2023/04/27 09:28:16;;;;;;;5.57;3.10;;;13.60;61.40;;;;;;4883937;29;20153;-78
2023/04/27 09:31:41;;;;;;;5.25;3.10;;;13.70;63.40;;;;;;4885729;29;20029;-78
2023/04/27 09:35:52;;;;;;;5.40;3.42;;;13.50;63.40;;;;;;4899849;29;20072;-76
2023/04/27 09:39:48;;;;;;;3.53;2.65;;;13.90;62.30;;;;;;4893490;29;20072;-81
2023/04/27 09:43:00;;;;;;;7.13;3.10;;;13.80;61.70;;;;;;4877689;29;20060;-79
2023/04/27 09:46:32;;;;;;;7.40;2.83;;;13.80;61.90;;;;;;4862142;29;20095;-82
2023/04/27 09:53:33;;;;;;;8.02;3.45;;;14.30;61.70;;;;;;4870030;29;19912;-78
2023/04/27 09:56:57;;;;;;;6.13;2.90;;;14.20;59.90;;;;;;4849013;29;20062;-79
2023/04/27 10:01:03;;;;;;;4.75;2.70;;;14.50;61.10;;;;;;4886657;27;20045;-77
2023/04/27 10:05:15;;;;;;;5.38;2.75;;;15.20;60.90;;;;;;4889186;29;20037;-79
2023/04/27 10:08:32;;;;;;;4.60;2.65;;;15.40;60.90;;;;;;4844417;29;20051;-75
2023/04/27 10:11:51;;;;;;;5.20;2.60;;;14.40;59.20;;;;;;4845971;29;20058;-76
2023/04/27 10:14:23;;;;;;;3.90;2.80;;;13.50;61.80;;;;;;4845241;29;20046;-80
2023/04/27 10:17:36;;;;;;;5.40;2.80;;;14.10;61.80;;;;;;4600053;27;20049;-75
2023/04/27 10:20:45;;;;;;;4.45;2.90;;;14.70;61.00;;;;;;4892322;29;20045;-78
2023/04/27 10:24:00;;;;;;;5.65;3.22;;;15.00;59.30;;;;;;4879687;29;20493;-75
2023/04/27 10:26:51;;;;;;;9.05;3.33;;;14.70;60.00;;;;;;4863009;29;20057;-74
2023/04/27 10:30:18;;;;;;;6.47;3.00;;;14.40;59.20;;;;;;4855495;29;20061;-75
2023/04/27 10:33:17;;;;;;;;;;;14.40;59.50;;;;;;4874607;29;20053;-75
2023/04/27 10:37:20;;;;;;;5.63;2.95;;;13.50;60.60;;;;;;4884799;29;19949;-77
2023/04/27 10:40:13;;;;;;;5.82;2.97;;;14.30;60.70;;;;;;4813709;29;20047;-76
2023/04/27 10:42:48;;;;;;;7.30;3.13;;;14.90;60.70;;;;;;4798138;29;20062;-77
2023/04/27 10:45:45;;;;;;;3.55;2.60;;;14.70;58.70;;;;;;4845135;29;20057;-79
2023/04/27 10:48:46;;;;;;;3.55;2.50;;;13.80;58.10;;;;;;4830140;29;20068;-75
2023/04/27 10:52:05;;;;;;;4.57;2.83;;;13.60;58.90;;;;;;4831455;29;20060;-77
2023/04/27 10:55:22;;;;;;;8.48;2.90;;;13.80;60.00;;;;;;4870599;29;20497;-76
2023/04/27 10:58:04;;;;;;;5.22;2.63;;;14.30;60.50;;;;;;4856692;29;20066;-79
2023/04/27 11:02:11;;;;;;;4.30;2.70;;;15.10;60.00;;;;;;4872470;29;20116;-77
2023/04/27 11:06:01;;;;;;;7.50;2.78;;;15.50;58.50;;;;;;4805522;29;20040;-80
2023/04/27 11:09:37;;;;;;;5.45;2.65;;;16.70;58.80;;;;;;4807767;30;20051;-78
2023/04/27 11:13:31;;;;;;;5.65;2.33;;;16.80;56.40;;;;;;4745663;30;20060;-77
2023/04/27 11:16:44;;;;;;;4.10;2.35;;;16.40;56.70;;;;;;4783679;30;20064;-76
2023/04/27 11:19:31;;;;;;;6.00;2.40;;;16.00;57.60;;;;;;4734752;30;20043;-77
2023/04/27 11:22:55;;;;;;;3.55;2.38;;;16.10;56.50;;;;;;4765881;30;20059;-78
2023/04/27 11:25:42;;;;;;;7.45;2.60;;;16.60;58.60;;;;;;4754045;30;20060;-76
2023/04/27 11:28:28;;;;;;;3.63;2.17;;;17.20;57.30;;;;;;4739036;30;20048;-77
2023/04/27 11:31:52;;;;;;;5.57;2.58;;;17.70;56.00;;;;;;4766025;30;20056;-78
2023/04/27 11:34:44;;;;;;;6.18;2.30;;;17.20;57.50;;;;;;4770712;29;20047;-76
2023/04/27 11:37:55;;;;;;;4.75;2.10;;;17.60;55.70;;;;;;4751007;30;20066;-80
2023/04/27 11:41:04;;;;;;;6.72;2.70;;;17.70;54.60;;;;;;4773515;30;20062;-80
2023/04/27 11:44:35;;;;;;;4.60;2.33;;;18.10;55.10;;;;;;4778458;30;20537;-75
2023/04/27 11:47:15;;;;;;;5.13;2.13;;;17.90;55.10;;;;;;4770315;30;20055;-79
2023/04/27 11:50:38;;;;;;;10.02;3.25;;;18.30;53.90;;;;;;4806094;29;20057;-74
2023/04/27 11:54:02;;;;;;;5.47;2.20;;;18.10;52.80;;;;;;4857684;29;20061;-74
2023/04/27 12:01:50;;;;;;;4.50;2.05;;;18.20;53.60;;;;;;4802066;29;20140;-79
2023/04/27 12:05:12;;;;;;;3.83;1.85;;;18.50;53.10;;;;;;4774282;30;20099;-75
2023/04/27 12:07:54;;;;;;;4.53;2.22;;;18.10;51.50;;;;;;4767202;30;20056;-74
2023/04/27 12:10:32;;;;;;;4.38;2.08;;;17.80;51.00;;;;;;4747142;30;20060;-73
2023/04/27 12:13:32;;;;;;;5.90;2.13;;;17.90;53.10;;;;;;4895637;24;20049;-77
2023/04/27 12:16:33;;;;;;;4.90;2.42;;;18.50;51.80;;;;;;4873131;29;20082;-75
2023/04/27 12:19:22;;;;;;;4.82;2.10;;;18.60;52.20;;;;;;4854965;29;20061;-77
2023/04/27 12:22:56;;;;;;;5.20;2.25;;;17.50;53.10;;;;;;4865079;29;20114;-76
2023/04/27 12:26:30;;;;;;;5.13;2.13;;;18.90;52.10;;;;;;4848619;29;20058;-75
2023/04/27 12:30:22;;;;;;;;;;;;;;;;;;;;;
2023/04/27 12:34:01;;;;;;;5.15;2.30;;;19.20;51.30;;;;;;4863106;29;20056;-80
2023/04/27 12:37:26;;;;;;;3.50;2.00;;;19.40;49.70;;;;;;4782511;29;20104;-77
2023/04/27 12:40:33;;;;;;;7.45;1.98;;;19.10;49.90;;;;;;4802886;29;20083;-75
2023/04/27 12:43:42;;;;;;;4.57;1.83;;;19.10;51.10;;;;;;4790830;29;20098;-78
2023/04/27 12:46:44;;;;;;;7.43;2.23;;;19.50;49.60;;;;;;4778617;30;20082;-75
2023/04/27 12:50:12;;;;;;;5.25;2.20;;;19.70;49.70;;;;;;4773034;30;20051;-75
2023/04/27 12:53:08;;;;;;;5.85;2.00;;;20.00;49.70;;;;;;4777370;30;20122;-73
2023/04/27 12:55:36;;;;;;;4.70;2.08;;;20.00;50.00;;;;;;4748173;30;20056;-73
2023/04/27 12:58:07;;;;;;;5.00;2.70;;;19.10;49.00;;;;;;4773223;30;20788;-75
2023/04/27 13:00:46;;;;;;;5.15;2.53;;;19.30;49.20;;;;;;4791435;30;20055;-72
2023/04/27 13:03:13;;;;;;;10.13;2.17;;;19.60;50.80;;;;;;4770708;30;20060;-74
2023/04/27 13:05:45;;;;;;;3.63;1.80;;;21.40;48.00;;;;;;4774113;30;20055;-74
2023/04/27 13:08:16;;;;;;;7.68;2.45;;;22.10;46.10;;;;;;4780902;30;20078;-72
2023/04/27 13:11:10;;;;;;;;;;;20.50;48.50;;;;;;4805578;29;20503;-75
2023/04/27 13:14:12;;;;;;;;;;;20.80;47.80;;;;;;4847540;29;19954;-74
2023/04/27 13:17:23;;;;;;;5.95;1.90;;;21.00;46.30;;;;;;4830416;29;19946;-75
2023/04/27 13:20:09;;;;;;;4.38;2.15;;;19.20;47.70;;;;;;4833202;29;20062;-73
2023/04/27 13:22:39;;;;;;;4.13;1.80;;;22.20;46.60;;;;;;4858089;29;20046;-75
2023/04/27 13:26:01;;;;;;;5.05;2.03;;;24.50;43.50;;;;;;4845141;29;20061;-79
2023/04/27 13:28:50;;;;;;;5.03;1.70;;;25.20;42.30;;;;;;4842408;29;20399;-74
2023/04/27 13:31:19;;;;;;;5.80;2.33;;;24.70;42.30;;;;;;4822900;29;20067;-75
2023/04/27 13:34:14;;;;;;;7.22;2.05;;;24.50;42.50;;;;;;5352642;23;20077;-78
2023/04/27 13:37:01;;;;;;;5.32;1.95;;;25.10;42.50;;;;;;4850090;29;20053;-77
2023/04/27 13:39:39;;;;;;;4.15;1.70;;;27.00;40.20;;;;;;4875472;29;20056;-75
2023/04/27 13:43:15;;;;;;;5.47;2.63;;;25.90;39.50;;;;;;4853443;29;20038;-79
2023/04/27 13:47:08;;;;;;;8.43;1.83;;;28.00;38.60;;;;;;4861789;29;20053;-79
2023/04/27 13:51:01;;;;;;;4.28;2.00;;;28.10;38.50;;;;;;4820242;29;20592;-77
2023/04/27 13:53:50;;;;;;;5.50;1.90;;;28.40;38.40;;;;;;4807252;29;20051;-82
2023/04/27 13:57:01;;;;;;;5.78;1.70;;;29.20;37.90;;;;;;4855419;29;20516;-80
2023/04/27 14:00:11;;;;;;;;;;;30.00;38.40;;;;;;4857793;29;20133;-78
2023/04/27 14:20:31;;;;;;;4.28;1.40;;;27.80;37.10;;;;;;5078380;28;20076;-80
2023/04/27 14:24:03;;;;;;;3.70;1.60;;;30.20;36.20;;;;;;5089273;28;20067;-79
2023/04/27 14:30:36;;;;;;;3.85;2.08;;;25.60;37.60;;;;;;5084955;28;20051;-77
2023/04/27 14:33:12;;;;;;;3.97;1.55;;;23.80;40.10;;;;;;5067983;28;20057;-78
2023/04/27 14:35:42;;;;;;;3.13;1.45;;;25.60;40.20;;;;;;5082749;28;20045;-77
2023/04/27 14:39:17;;;;;;;4.53;1.70;;;27.80;37.20;;;;;;5035781;28;20052;-79
2023/04/27 14:42:40;;;;;;;4.32;1.70;;;29.40;36.20;;;;;;5059803;28;20060;-81
2023/04/27 14:45:28;;;;;;;4.57;1.63;;;31.20;35.70;;;;;;5037717;28;20063;-79
2023/04/27 14:48:46;;;;;;;4.85;1.67;;;30.50;35.00;;;;;;5054070;28;20079;-77
2023/04/27 14:52:02;;;;;;;6.18;2.45;;;30.40;35.30;;;;;;5070967;28;20100;-79
2023/04/27 14:55:39;;;;;;;4.35;1.75;;;30.90;34.90;;;;;;5001224;28;20050;-82
2023/04/27 14:58:39;;;;;;;4.88;2.00;;;28.10;35.20;;;;;;5066686;28;20025;-77
2023/04/27 15:11:28;;;;;;;53.05;46.92;;;30.60;34.40;;;;;;5120948;23;20020;-80
2023/04/27 15:20:18;;;;;;;6.93;2.40;;;32.60;33.90;;;;;;1378470;26;20045;-79
2023/04/27 15:23:18;;;;;;;3.95;1.52;;;31.60;33.60;;;;;;5048209;28;20045;-78
2023/04/27 15:26:29;;;;;;;33.70;29.40;;;31.20;33.90;;;;;;5043947;28;20044;-79
2023/04/27 15:42:12;;;;;;;6.65;2.25;;;31.90;33.90;;;;;;4928713;29;20028;-76
2023/04/27 15:45:23;;;;;;;9.02;3.10;;;31.80;32.90;;;;;;5013138;28;20050;-79
2023/04/27 15:48:04;;;;;;;62.55;55.55;;;31.90;33.50;;;;;;4977471;28;20055;-77
2023/04/27 15:51:21;;;;;;;47.45;42.05;;;32.60;33.80;;;;;;5003708;28;20130;-77